ADDS METAR Data INFO
IDs: Format: Raw Decoded Include TAF

Data at: 1607 UTC 19 Oct 2017

KMAF 191553Z 18011KT 10SM BKN120 19/09 A3011 RMK AO2 SLP165 T01890089
KMAF 191453Z 16014KT 10SM CLR 18/08 A3010 RMK AO2 SLP159 T01780083 53014
KMAF 191353Z 18004KT 10SM CLR 15/08 A3008 RMK AO2 SLP156 T01500083
KMAF 191253Z 14005KT 10SM CLR 14/08 A3006 RMK AO2 SLP146 T01390083
KMAF 191153Z 14007KT 10SM CLR 14/08 A3005 RMK AO2 SLP142 T01390078 10178 20139 53001
KMAF 191053Z 16009KT 10SM CLR 16/07 A3004 RMK AO2 SLP134 T01560072
KMAF 190953Z 14009KT 10SM CLR 14/08 A3003 RMK AO2 SLP132 T01440083
KMAF 190853Z 17011KT 10SM CLR 16/08 A3005 RMK AO2 SLP134 T01610083 58006
KMAF 190753Z 17008KT 10SM CLR 16/07 A3006 RMK AO2 SLP138 T01560067
KMAF 190653Z 17009KT 10SM CLR 17/06 A3006 RMK AO2 SLP140 T01670061
KMAF 190553Z 17010KT 10SM CLR 18/06 A3007 RMK AO2 SLP142 T01780056 10250 20167 403000111 50000
KMAF 190453Z 16008KT 10SM CLR 18/06 A3008 RMK AO2 SLP146 T01780061
KMAF 190353Z 16006KT 10SM CLR 17/07 A3008 RMK AO2 SLP151 T01720067
KMAF 190253Z 16008KT 10SM CLR 19/06 A3007 RMK AO2 SLP148 T01940061 51013
KMAF 190153Z AUTO 14006KT 10SM CLR 19/06 A3006 RMK AO2 SLP148 T01890061
KMAF 190053Z 15008KT 10SM CLR 21/05 A3004 RMK AO2 SLP142 T02110050
KMAF 182353Z 16013KT 10SM CLR 25/03 A3003 RMK AO2 SLP133 T02500033 10300 20250 58003
KMAF 182253Z 16010KT 10SM CLR 27/04 A3003 RMK AO2 SLP134 T02720044
KMAF 182153Z 16012KT 10SM CLR 28/06 A3004 RMK AO2 SLP133 T02780056
KMAF 182053Z 18012KT 10SM CLR 29/06 A3004 RMK AO2 SLP131 T02940056 56021
KMAF 181953Z 17013G17KT 10SM CLR 30/06 A3005 RMK AO2 SLP136 T03000061
KMAF 181853Z 17011KT 10SM CLR 28/06 A3008 RMK AO2 SLP146 T02780056
KMAF 181753Z 21009KT 10SM CLR 26/06 A3011 RMK AO2 SLP156 T02610061 10261 20111 58004
KMAF 181653Z 17008KT 10SM CLR 24/06 A3012 RMK AO2 SLP163 T02390056
KMAF 181553Z 17009KT 10SM CLR 21/04 A3012 RMK AO2 SLP166 T02110044
KMAF 181453Z 17011KT 10SM CLR 18/04 A3012 RMK AO2 SLP167 T01830044 53007
KMAF 181353Z 17008KT 10SM CLR 14/05 A3011 RMK AO2 SLP166 T01440050
KMAF 181253Z 17007KT 10SM CLR 12/05 A3010 RMK AO2 SLP162 T01220050
KMAF 181153Z 19006KT 10SM CLR 13/04 A3010 RMK AO2 SLP158 T01330044 10172 20128 53002
KMAF 181053Z 18008KT 10SM CLR 14/04 A3008 RMK AO2 SLP152 T01390044
KMAF 180953Z AUTO 17007KT 10SM CLR 14/04 A3008 RMK AO2 SLP151 T01390044
KMAF 180853Z AUTO 17008KT 10SM CLR 15/04 A3009 RMK AO2 SLP151 T01500044 58014
KMAF 180753Z AUTO 17008KT 10SM CLR 14/05 A3011 RMK AO2 SLP160 T01440050
KMAF 180653Z AUTO 18010KT 10SM CLR 17/04 A3012 RMK AO2 SLP161 T01670044
KMAF 180553Z AUTO 18010KT 10SM CLR 17/04 A3013 RMK AO2 SLP168 T01720039 10244 20172 402720072 58003
KMAF 180453Z AUTO 18007KT 10SM CLR 17/03 A3015 RMK AO2 SLP176 T01720033